sensor_id;sensor_type;location;lat;lon;timestamp;P1;durP1;ratioP1;P2;durP2;ratioP2
7047;SDS011;3565;53.254;10.352;2023-02-23T00:02:22;36.70;;;18.83;;
7047;SDS011;3565;53.254;10.352;2023-02-23T00:04:51;33.67;;;18.50;;
7047;SDS011;3565;53.254;10.352;2023-02-23T00:07:21;39.03;;;18.37;;
7047;SDS011;3565;53.254;10.352;2023-02-23T00:09:52;39.00;;;20.23;;
7047;SDS011;3565;53.254;10.352;2023-02-23T00:12:22;36.67;;;19.10;;
7047;SDS011;3565;53.254;10.352;2023-02-23T00:14:52;36.07;;;19.57;;
7047;SDS011;3565;53.254;10.352;2023-02-23T00:17:21;40.30;;;19.70;;
7047;SDS011;3565;53.254;10.352;2023-02-23T00:19:50;40.67;;;20.53;;
7047;SDS011;3565;53.254;10.352;2023-02-23T00:22:20;34.43;;;18.73;;
7047;SDS011;3565;53.254;10.352;2023-02-23T00:24:51;35.53;;;19.87;;
7047;SDS011;3565;53.254;10.352;2023-02-23T00:27:22;37.47;;;19.50;;
7047;SDS011;3565;53.254;10.352;2023-02-23T00:29:51;44.70;;;21.13;;
7047;SDS011;3565;53.254;10.352;2023-02-23T00:34:58;34.40;;;19.70;;
7047;SDS011;3565;53.254;10.352;2023-02-23T00:37:27;36.80;;;19.07;;
7047;SDS011;3565;53.254;10.352;2023-02-23T00:39:57;34.97;;;19.10;;
7047;SDS011;3565;53.254;10.352;2023-02-23T00:42:27;37.77;;;19.97;;
7047;SDS011;3565;53.254;10.352;2023-02-23T00:44:57;38.70;;;20.17;;
7047;SDS011;3565;53.254;10.352;2023-02-23T00:47:36;39.67;;;19.57;;
7047;SDS011;3565;53.254;10.352;2023-02-23T00:50:10;42.10;;;20.13;;
7047;SDS011;3565;53.254;10.352;2023-02-23T00:52:41;33.43;;;18.80;;
7047;SDS011;3565;53.254;10.352;2023-02-23T00:55:12;34.47;;;19.47;;
7047;SDS011;3565;53.254;10.352;2023-02-23T00:57:41;39.90;;;20.10;;
7047;SDS011;3565;53.254;10.352;2023-02-23T01:00:14;35.80;;;20.37;;
7047;SDS011;3565;53.254;10.352;2023-02-23T01:02:46;37.90;;;19.30;;
7047;SDS011;3565;53.254;10.352;2023-02-23T01:05:16;36.70;;;19.80;;
7047;SDS011;3565;53.254;10.352;2023-02-23T01:07:47;36.30;;;19.23;;
7047;SDS011;3565;53.254;10.352;2023-02-23T01:10:17;38.77;;;20.10;;
7047;SDS011;3565;53.254;10.352;2023-02-23T01:12:47;40.17;;;20.27;;
7047;SDS011;3565;53.254;10.352;2023-02-23T01:15:18;34.23;;;19.50;;
7047;SDS011;3565;53.254;10.352;2023-02-23T01:17:48;35.10;;;19.17;;
7047;SDS011;3565;53.254;10.352;2023-02-23T01:20:18;38.80;;;18.60;;
7047;SDS011;3565;53.254;10.352;2023-02-23T01:22:48;30.67;;;18.60;;
7047;SDS011;3565;53.254;10.352;2023-02-23T01:25:18;36.27;;;19.27;;
7047;SDS011;3565;53.254;10.352;2023-02-23T01:27:50;42.43;;;19.93;;
7047;SDS011;3565;53.254;10.352;2023-02-23T01:30:21;37.43;;;19.30;;
7047;SDS011;3565;53.254;10.352;2023-02-23T01:32:50;41.23;;;20.07;;
7047;SDS011;3565;53.254;10.352;2023-02-23T01:35:20;39.17;;;19.20;;
7047;SDS011;3565;53.254;10.352;2023-02-23T01:37:49;35.60;;;18.13;;
7047;SDS011;3565;53.254;10.352;2023-02-23T01:40:19;39.80;;;20.13;;
7047;SDS011;3565;53.254;10.352;2023-02-23T01:42:59;40.20;;;19.37;;
7047;SDS011;3565;53.254;10.352;2023-02-23T01:45:36;39.00;;;19.60;;
7047;SDS011;3565;53.254;10.352;2023-02-23T01:48:08;35.27;;;18.47;;
7047;SDS011;3565;53.254;10.352;2023-02-23T01:50:42;36.57;;;18.73;;
7047;SDS011;3565;53.254;10.352;2023-02-23T01:53:14;39.57;;;19.33;;
7047;SDS011;3565;53.254;10.352;2023-02-23T01:55:46;38.63;;;19.70;;
7047;SDS011;3565;53.254;10.352;2023-02-23T01:58:17;37.83;;;20.03;;
7047;SDS011;3565;53.254;10.352;2023-02-23T02:00:49;36.50;;;18.80;;
7047;SDS011;3565;53.254;10.352;2023-02-23T02:03:23;39.77;;;19.10;;
7047;SDS011;3565;53.254;10.352;2023-02-23T02:05:55;37.40;;;19.43;;
7047;SDS011;3565;53.254;10.352;2023-02-23T02:08:28;39.13;;;19.50;;
7047;SDS011;3565;53.254;10.352;2023-02-23T02:11:00;40.97;;;19.10;;
7047;SDS011;3565;53.254;10.352;2023-02-23T02:13:32;37.07;;;18.93;;
7047;SDS011;3565;53.254;10.352;2023-02-23T02:16:07;38.03;;;17.70;;
7047;SDS011;3565;53.254;10.352;2023-02-23T02:19:04;40.57;;;19.70;;
7047;SDS011;3565;53.254;10.352;2023-02-23T02:28:20;39.50;;;19.13;;
7047;SDS011;3565;53.254;10.352;2023-02-23T02:31:17;37.13;;;17.97;;
7047;SDS011;3565;53.254;10.352;2023-02-23T02:37:22;37.73;;;19.50;;
7047;SDS011;3565;53.254;10.352;2023-02-23T02:40:16;38.60;;;19.97;;
7047;SDS011;3565;53.254;10.352;2023-02-23T02:43:08;38.47;;;19.43;;
7047;SDS011;3565;53.254;10.352;2023-02-23T02:45:42;36.43;;;19.90;;
7047;SDS011;3565;53.254;10.352;2023-02-23T02:48:21;42.03;;;19.47;;
7047;SDS011;3565;53.254;10.352;2023-02-23T02:50:57;36.23;;;19.77;;
7047;SDS011;3565;53.254;10.352;2023-02-23T02:53:29;38.40;;;18.50;;
7047;SDS011;3565;53.254;10.352;2023-02-23T02:56:03;38.43;;;19.10;;
7047;SDS011;3565;53.254;10.352;2023-02-23T02:58:33;41.93;;;20.73;;
7047;SDS011;3565;53.254;10.352;2023-02-23T03:01:05;42.20;;;19.93;;
7047;SDS011;3565;53.254;10.352;2023-02-23T03:03:55;38.03;;;19.53;;
7047;SDS011;3565;53.254;10.352;2023-02-23T03:06:45;38.10;;;18.80;;
7047;SDS011;3565;53.254;10.352;2023-02-23T03:09:35;38.10;;;19.40;;
7047;SDS011;3565;53.254;10.352;2023-02-23T03:12:27;37.97;;;19.30;;
7047;SDS011;3565;53.254;10.352;2023-02-23T03:18:23;41.33;;;19.97;;
7047;SDS011;3565;53.254;10.352;2023-02-23T03:21:18;45.93;;;18.97;;
7047;SDS011;3565;53.254;10.352;2023-02-23T03:24:09;39.20;;;20.00;;
7047;SDS011;3565;53.254;10.352;2023-02-23T03:26:59;39.73;;;20.60;;
7047;SDS011;3565;53.254;10.352;2023-02-23T03:29:39;54.17;;;22.43;;
7047;SDS011;3565;53.254;10.352;2023-02-23T03:32:30;54.47;;;22.60;;
7047;SDS011;3565;53.254;10.352;2023-02-23T03:35:20;53.27;;;22.40;;
7047;SDS011;3565;53.254;10.352;2023-02-23T03:38:09;49.60;;;22.80;;
7047;SDS011;3565;53.254;10.352;2023-02-23T03:40:58;49.30;;;22.53;;
7047;SDS011;3565;53.254;10.352;2023-02-23T03:43:47;51.23;;;23.07;;
7047;SDS011;3565;53.254;10.352;2023-02-23T03:46:36;57.97;;;23.17;;
7047;SDS011;3565;53.254;10.352;2023-02-23T03:49:26;53.40;;;23.50;;
7047;SDS011;3565;53.254;10.352;2023-02-23T03:52:17;50.00;;;22.40;;
7047;SDS011;3565;53.254;10.352;2023-02-23T03:55:08;62.83;;;23.27;;
7047;SDS011;3565;53.254;10.352;2023-02-23T03:57:56;47.57;;;23.93;;
7047;SDS011;3565;53.254;10.352;2023-02-23T04:00:47;52.30;;;23.07;;
7047;SDS011;3565;53.254;10.352;2023-02-23T04:03:36;46.00;;;20.93;;
7047;SDS011;3565;53.254;10.352;2023-02-23T04:06:26;47.03;;;22.50;;
7047;SDS011;3565;53.254;10.352;2023-02-23T04:09:15;44.33;;;21.53;;
7047;SDS011;3565;53.254;10.352;2023-02-23T04:12:05;69.43;;;22.50;;
7047;SDS011;3565;53.254;10.352;2023-02-23T04:17:32;49.47;;;24.07;;
7047;SDS011;3565;53.254;10.352;2023-02-23T04:20:03;46.77;;;22.33;;
7047;SDS011;3565;53.254;10.352;2023-02-23T04:22:34;46.87;;;21.20;;
7047;SDS011;3565;53.254;10.352;2023-02-23T04:25:05;54.40;;;22.07;;
7047;SDS011;3565;53.254;10.352;2023-02-23T04:27:35;45.57;;;21.80;;
7047;SDS011;3565;53.254;10.352;2023-02-23T04:30:07;46.83;;;21.43;;
7047;SDS011;3565;53.254;10.352;2023-02-23T04:32:38;68.40;;;22.10;;
7047;SDS011;3565;53.254;10.352;2023-02-23T04:35:10;45.20;;;21.47;;
7047;SDS011;3565;53.254;10.352;2023-02-23T04:37:39;86.30;;;23.53;;
7047;SDS011;3565;53.254;10.352;2023-02-23T04:40:10;133.07;;;25.43;;
7047;SDS011;3565;53.254;10.352;2023-02-23T04:42:40;49.40;;;22.83;;
7047;SDS011;3565;53.254;10.352;2023-02-23T04:45:11;44.70;;;21.53;;
7047;SDS011;3565;53.254;10.352;2023-02-23T04:47:40;46.73;;;22.00;;
7047;SDS011;3565;53.254;10.352;2023-02-23T04:50:11;48.47;;;22.13;;
7047;SDS011;3565;53.254;10.352;2023-02-23T04:52:40;54.00;;;23.57;;
7047;SDS011;3565;53.254;10.352;2023-02-23T04:55:14;49.90;;;22.77;;
7047;SDS011;3565;53.254;10.352;2023-02-23T04:57:43;41.60;;;21.10;;
7047;SDS011;3565;53.254;10.352;2023-02-23T05:00:14;67.97;;;23.83;;
7047;SDS011;3565;53.254;10.352;2023-02-23T05:02:45;92.80;;;23.67;;
7047;SDS011;3565;53.254;10.352;2023-02-23T05:05:15;86.57;;;22.73;;
7047;SDS011;3565;53.254;10.352;2023-02-23T05:07:44;66.43;;;22.77;;
7047;SDS011;3565;53.254;10.352;2023-02-23T05:10:13;68.03;;;22.97;;
7047;SDS011;3565;53.254;10.352;2023-02-23T05:12:43;52.37;;;22.50;;
7047;SDS011;3565;53.254;10.352;2023-02-23T05:15:13;51.07;;;23.10;;
7047;SDS011;3565;53.254;10.352;2023-02-23T05:17:42;46.27;;;22.53;;
7047;SDS011;3565;53.254;10.352;2023-02-23T05:20:12;45.73;;;22.20;;
7047;SDS011;3565;53.254;10.352;2023-02-23T05:22:41;44.43;;;21.13;;
7047;SDS011;3565;53.254;10.352;2023-02-23T05:25:12;42.83;;;21.03;;
7047;SDS011;3565;53.254;10.352;2023-02-23T05:27:41;65.20;;;23.03;;
7047;SDS011;3565;53.254;10.352;2023-02-23T05:30:11;43.53;;;21.60;;
7047;SDS011;3565;53.254;10.352;2023-02-23T05:32:41;49.10;;;23.43;;
7047;SDS011;3565;53.254;10.352;2023-02-23T05:35:10;49.73;;;23.23;;
7047;SDS011;3565;53.254;10.352;2023-02-23T05:37:39;54.70;;;25.23;;
7047;SDS011;3565;53.254;10.352;2023-02-23T05:40:11;50.80;;;25.10;;
7047;SDS011;3565;53.254;10.352;2023-02-23T05:42:41;52.00;;;24.50;;
7047;SDS011;3565;53.254;10.352;2023-02-23T05:45:11;68.97;;;25.97;;
7047;SDS011;3565;53.254;10.352;2023-02-23T05:47:40;53.00;;;25.77;;
7047;SDS011;3565;53.254;10.352;2023-02-23T05:50:10;56.70;;;23.80;;
7047;SDS011;3565;53.254;10.352;2023-02-23T05:52:40;56.40;;;24.40;;
7047;SDS011;3565;53.254;10.352;2023-02-23T05:55:11;55.97;;;23.60;;
7047;SDS011;3565;53.254;10.352;2023-02-23T05:57:40;62.40;;;23.10;;
7047;SDS011;3565;53.254;10.352;2023-02-23T06:00:11;47.73;;;23.07;;
7047;SDS011;3565;53.254;10.352;2023-02-23T06:02:41;47.47;;;22.93;;
7047;SDS011;3565;53.254;10.352;2023-02-23T06:05:10;52.37;;;23.00;;
7047;SDS011;3565;53.254;10.352;2023-02-23T06:07:41;53.83;;;24.17;;
7047;SDS011;3565;53.254;10.352;2023-02-23T06:10:11;52.23;;;25.40;;
7047;SDS011;3565;53.254;10.352;2023-02-23T06:12:40;50.80;;;23.37;;
7047;SDS011;3565;53.254;10.352;2023-02-23T06:15:10;59.20;;;26.03;;
7047;SDS011;3565;53.254;10.352;2023-02-23T06:17:39;48.97;;;22.20;;
7047;SDS011;3565;53.254;10.352;2023-02-23T06:20:10;49.00;;;23.33;;
7047;SDS011;3565;53.254;10.352;2023-02-23T06:22:41;53.57;;;23.47;;
7047;SDS011;3565;53.254;10.352;2023-02-23T06:25:10;56.87;;;25.73;;
7047;SDS011;3565;53.254;10.352;2023-02-23T06:27:39;53.93;;;26.43;;
7047;SDS011;3565;53.254;10.352;2023-02-23T06:30:12;54.37;;;24.93;;
7047;SDS011;3565;53.254;10.352;2023-02-23T06:32:41;53.17;;;24.27;;
7047;SDS011;3565;53.254;10.352;2023-02-23T06:35:10;51.60;;;23.90;;
7047;SDS011;3565;53.254;10.352;2023-02-23T06:37:40;60.53;;;26.47;;
7047;SDS011;3565;53.254;10.352;2023-02-23T06:40:10;60.37;;;25.23;;
7047;SDS011;3565;53.254;10.352;2023-02-23T06:42:39;58.60;;;26.00;;
7047;SDS011;3565;53.254;10.352;2023-02-23T06:45:11;66.30;;;27.93;;
7047;SDS011;3565;53.254;10.352;2023-02-23T06:47:41;62.47;;;26.87;;
7047;SDS011;3565;53.254;10.352;2023-02-23T06:50:11;56.93;;;25.37;;
7047;SDS011;3565;53.254;10.352;2023-02-23T06:52:41;50.47;;;23.70;;
7047;SDS011;3565;53.254;10.352;2023-02-23T06:55:10;64.93;;;27.80;;
7047;SDS011;3565;53.254;10.352;2023-02-23T06:57:40;55.03;;;23.83;;
7047;SDS011;3565;53.254;10.352;2023-02-23T07:00:10;55.30;;;25.27;;
7047;SDS011;3565;53.254;10.352;2023-02-23T07:02:42;60.90;;;26.63;;
7047;SDS011;3565;53.254;10.352;2023-02-23T07:05:11;57.57;;;24.83;;
7047;SDS011;3565;53.254;10.352;2023-02-23T07:07:40;77.47;;;31.03;;
7047;SDS011;3565;53.254;10.352;2023-02-23T07:10:11;84.43;;;32.33;;
7047;SDS011;3565;53.254;10.352;2023-02-23T07:12:41;64.50;;;29.43;;
7047;SDS011;3565;53.254;10.352;2023-02-23T07:15:10;82.60;;;33.77;;
7047;SDS011;3565;53.254;10.352;2023-02-23T07:17:41;83.67;;;34.87;;
7047;SDS011;3565;53.254;10.352;2023-02-23T07:20:13;84.30;;;34.07;;
7047;SDS011;3565;53.254;10.352;2023-02-23T07:22:42;91.63;;;35.50;;
7047;SDS011;3565;53.254;10.352;2023-02-23T07:25:12;88.60;;;35.73;;
7047;SDS011;3565;53.254;10.352;2023-02-23T07:27:41;95.57;;;36.33;;
7047;SDS011;3565;53.254;10.352;2023-02-23T07:30:12;90.87;;;36.33;;
7047;SDS011;3565;53.254;10.352;2023-02-23T07:32:43;101.07;;;38.17;;
7047;SDS011;3565;53.254;10.352;2023-02-23T07:35:12;106.57;;;39.17;;
7047;SDS011;3565;53.254;10.352;2023-02-23T07:37:42;92.83;;;39.60;;
7047;SDS011;3565;53.254;10.352;2023-02-23T07:40:12;98.10;;;37.83;;
7047;SDS011;3565;53.254;10.352;2023-02-23T07:42:41;93.83;;;37.40;;
7047;SDS011;3565;53.254;10.352;2023-02-23T07:45:11;94.03;;;37.80;;
7047;SDS011;3565;53.254;10.352;2023-02-23T07:47:40;87.23;;;35.43;;
7047;SDS011;3565;53.254;10.352;2023-02-23T07:50:10;75.47;;;32.90;;
7047;SDS011;3565;53.254;10.352;2023-02-23T07:52:40;93.63;;;35.53;;
7047;SDS011;3565;53.254;10.352;2023-02-23T07:55:10;90.13;;;36.93;;
7047;SDS011;3565;53.254;10.352;2023-02-23T07:57:39;81.40;;;35.87;;
7047;SDS011;3565;53.254;10.352;2023-02-23T08:00:09;82.17;;;36.97;;
7047;SDS011;3565;53.254;10.352;2023-02-23T08:02:40;90.73;;;36.97;;
7047;SDS011;3565;53.254;10.352;2023-02-23T08:05:11;85.67;;;36.57;;
7047;SDS011;3565;53.254;10.352;2023-02-23T08:07:40;90.17;;;36.90;;
7047;SDS011;3565;53.254;10.352;2023-02-23T08:10:11;83.53;;;36.20;;
7047;SDS011;3565;53.254;10.352;2023-02-23T08:12:40;84.23;;;37.07;;
7047;SDS011;3565;53.254;10.352;2023-02-23T08:15:10;83.93;;;37.50;;
7047;SDS011;3565;53.254;10.352;2023-02-23T08:17:39;84.93;;;37.73;;
7047;SDS011;3565;53.254;10.352;2023-02-23T08:20:10;84.97;;;37.97;;
7047;SDS011;3565;53.254;10.352;2023-02-23T08:22:39;79.47;;;35.10;;
7047;SDS011;3565;53.254;10.352;2023-02-23T08:25:09;87.93;;;38.20;;
7047;SDS011;3565;53.254;10.352;2023-02-23T08:27:38;88.50;;;38.30;;
7047;SDS011;3565;53.254;10.352;2023-02-23T08:30:09;85.03;;;37.70;;
7047;SDS011;3565;53.254;10.352;2023-02-23T08:32:39;80.60;;;36.17;;
7047;SDS011;3565;53.254;10.352;2023-02-23T08:35:09;83.30;;;38.80;;
7047;SDS011;3565;53.254;10.352;2023-02-23T08:37:39;83.20;;;38.17;;
7047;SDS011;3565;53.254;10.352;2023-02-23T08:40:09;87.03;;;37.80;;
7047;SDS011;3565;53.254;10.352;2023-02-23T08:42:40;80.47;;;38.17;;
7047;SDS011;3565;53.254;10.352;2023-02-23T08:45:10;84.37;;;38.57;;
7047;SDS011;3565;53.254;10.352;2023-02-23T08:47:39;76.43;;;35.53;;
7047;SDS011;3565;53.254;10.352;2023-02-23T08:50:11;77.97;;;36.80;;
7047;SDS011;3565;53.254;10.352;2023-02-23T08:52:40;77.43;;;36.40;;
7047;SDS011;3565;53.254;10.352;2023-02-23T08:55:10;73.27;;;34.73;;
7047;SDS011;3565;53.254;10.352;2023-02-23T08:57:41;79.40;;;36.47;;
7047;SDS011;3565;53.254;10.352;2023-02-23T09:00:14;70.27;;;34.27;;
7047;SDS011;3565;53.254;10.352;2023-02-23T09:02:45;71.47;;;35.77;;
7047;SDS011;3565;53.254;10.352;2023-02-23T09:05:14;68.27;;;32.83;;
7047;SDS011;3565;53.254;10.352;2023-02-23T09:07:44;67.93;;;34.53;;
7047;SDS011;3565;53.254;10.352;2023-02-23T09:10:15;70.30;;;35.63;;
7047;SDS011;3565;53.254;10.352;2023-02-23T09:12:48;72.20;;;33.77;;
7047;SDS011;3565;53.254;10.352;2023-02-23T09:15:17;66.80;;;33.57;;
7047;SDS011;3565;53.254;10.352;2023-02-23T09:17:46;72.67;;;34.87;;
7047;SDS011;3565;53.254;10.352;2023-02-23T09:20:16;66.47;;;31.70;;
7047;SDS011;3565;53.254;10.352;2023-02-23T09:22:55;66.43;;;32.97;;
7047;SDS011;3565;53.254;10.352;2023-02-23T09:25:24;63.60;;;32.87;;
7047;SDS011;3565;53.254;10.352;2023-02-23T09:27:54;59.47;;;31.80;;
7047;SDS011;3565;53.254;10.352;2023-02-23T09:30:25;63.67;;;34.07;;
7047;SDS011;3565;53.254;10.352;2023-02-23T09:32:54;56.40;;;30.57;;
7047;SDS011;3565;53.254;10.352;2023-02-23T09:35:24;59.93;;;31.53;;
7047;SDS011;3565;53.254;10.352;2023-02-23T09:37:54;55.27;;;30.17;;
7047;SDS011;3565;53.254;10.352;2023-02-23T09:40:24;53.03;;;29.03;;
7047;SDS011;3565;53.254;10.352;2023-02-23T09:43:00;55.97;;;29.73;;
7047;SDS011;3565;53.254;10.352;2023-02-23T09:45:34;51.87;;;28.27;;
7047;SDS011;3565;53.254;10.352;2023-02-23T09:48:14;53.90;;;29.63;;
7047;SDS011;3565;53.254;10.352;2023-02-23T09:50:49;45.20;;;25.77;;
7047;SDS011;3565;53.254;10.352;2023-02-23T09:53:28;45.47;;;25.87;;
7047;SDS011;3565;53.254;10.352;2023-02-23T09:56:01;45.13;;;25.87;;
7047;SDS011;3565;53.254;10.352;2023-02-23T09:58:34;43.97;;;25.43;;
7047;SDS011;3565;53.254;10.352;2023-02-23T10:04:21;36.97;;;22.80;;
7047;SDS011;3565;53.254;10.352;2023-02-23T10:06:56;33.67;;;21.40;;
7047;SDS011;3565;53.254;10.352;2023-02-23T10:09:36;32.73;;;21.47;;
7047;SDS011;3565;53.254;10.352;2023-02-23T10:12:27;34.60;;;20.93;;
7047;SDS011;3565;53.254;10.352;2023-02-23T10:15:03;32.90;;;20.80;;
7047;SDS011;3565;53.254;10.352;2023-02-23T10:17:43;33.10;;;21.30;;
7047;SDS011;3565;53.254;10.352;2023-02-23T10:20:20;30.73;;;20.27;;
7047;SDS011;3565;53.254;10.352;2023-02-23T10:22:52;28.73;;;19.77;;
7047;SDS011;3565;53.254;10.352;2023-02-23T10:25:24;30.83;;;19.60;;
7047;SDS011;3565;53.254;10.352;2023-02-23T10:27:57;30.83;;;20.20;;
7047;SDS011;3565;53.254;10.352;2023-02-23T10:30:29;30.60;;;20.37;;
7047;SDS011;3565;53.254;10.352;2023-02-23T10:33:03;31.53;;;19.63;;
7047;SDS011;3565;53.254;10.352;2023-02-23T10:35:34;30.77;;;19.90;;
7047;SDS011;3565;53.254;10.352;2023-02-23T10:38:07;27.00;;;18.53;;
7047;SDS011;3565;53.254;10.352;2023-02-23T10:40:41;27.17;;;17.97;;
7047;SDS011;3565;53.254;10.352;2023-02-23T10:43:12;24.90;;;18.00;;
7047;SDS011;3565;53.254;10.352;2023-02-23T10:45:44;25.70;;;16.87;;
7047;SDS011;3565;53.254;10.352;2023-02-23T10:48:16;23.30;;;16.63;;
7047;SDS011;3565;53.254;10.352;2023-02-23T10:50:48;22.93;;;15.93;;
7047;SDS011;3565;53.254;10.352;2023-02-23T10:53:21;23.30;;;15.63;;
7047;SDS011;3565;53.254;10.352;2023-02-23T10:56:02;22.00;;;15.90;;
7047;SDS011;3565;53.254;10.352;2023-02-23T10:58:41;23.67;;;16.17;;
7047;SDS011;3565;53.254;10.352;2023-02-23T11:01:12;23.77;;;15.90;;
7047;SDS011;3565;53.254;10.352;2023-02-23T11:03:43;25.47;;;16.80;;
7047;SDS011;3565;53.254;10.352;2023-02-23T11:09:23;27.23;;;16.97;;
7047;SDS011;3565;53.254;10.352;2023-02-23T11:11:57;28.67;;;18.07;;
7047;SDS011;3565;53.254;10.352;2023-02-23T11:14:28;31.20;;;18.17;;
7047;SDS011;3565;53.254;10.352;2023-02-23T11:16:58;31.30;;;17.67;;
7047;SDS011;3565;53.254;10.352;2023-02-23T11:19:29;29.67;;;17.97;;
7047;SDS011;3565;53.254;10.352;2023-02-23T11:22:02;35.20;;;19.33;;
7047;SDS011;3565;53.254;10.352;2023-02-23T11:24:33;35.33;;;19.50;;
7047;SDS011;3565;53.254;10.352;2023-02-23T11:27:06;35.70;;;19.83;;
7047;SDS011;3565;53.254;10.352;2023-02-23T11:29:39;35.47;;;20.20;;
7047;SDS011;3565;53.254;10.352;2023-02-23T11:32:12;38.90;;;20.27;;
7047;SDS011;3565;53.254;10.352;2023-02-23T11:34:45;37.10;;;20.23;;
7047;SDS011;3565;53.254;10.352;2023-02-23T11:37:20;39.00;;;20.50;;
7047;SDS011;3565;53.254;10.352;2023-02-23T11:39:50;39.20;;;20.70;;
7047;SDS011;3565;53.254;10.352;2023-02-23T11:42:20;43.97;;;22.47;;
7047;SDS011;3565;53.254;10.352;2023-02-23T11:45:00;46.13;;;23.43;;
7047;SDS011;3565;53.254;10.352;2023-02-23T11:47:31;48.67;;;23.97;;
7047;SDS011;3565;53.254;10.352;2023-02-23T11:50:03;55.40;;;25.77;;
7047;SDS011;3565;53.254;10.352;2023-02-23T11:52:34;57.20;;;27.37;;
7047;SDS011;3565;53.254;10.352;2023-02-23T11:55:07;66.30;;;28.50;;
7047;SDS011;3565;53.254;10.352;2023-02-23T11:57:40;75.10;;;30.83;;
7047;SDS011;3565;53.254;10.352;2023-02-23T12:00:11;73.67;;;29.93;;
7047;SDS011;3565;53.254;10.352;2023-02-23T12:02:48;97.93;;;34.93;;
7047;SDS011;3565;53.254;10.352;2023-02-23T12:05:21;96.07;;;35.37;;
7047;SDS011;3565;53.254;10.352;2023-02-23T12:07:54;94.70;;;34.73;;
7047;SDS011;3565;53.254;10.352;2023-02-23T12:10:36;93.63;;;33.90;;
7047;SDS011;3565;53.254;10.352;2023-02-23T12:13:11;98.43;;;36.73;;
7047;SDS011;3565;53.254;10.352;2023-02-23T12:15:47;85.17;;;33.87;;
7047;SDS011;3565;53.254;10.352;2023-02-23T12:18:24;90.57;;;35.20;;
7047;SDS011;3565;53.254;10.352;2023-02-23T12:21:02;87.60;;;34.10;;
7047;SDS011;3565;53.254;10.352;2023-02-23T12:23:33;86.50;;;33.73;;
7047;SDS011;3565;53.254;10.352;2023-02-23T12:26:08;87.93;;;33.27;;
7047;SDS011;3565;53.254;10.352;2023-02-23T12:28:47;92.30;;;34.33;;
7047;SDS011;3565;53.254;10.352;2023-02-23T12:31:21;88.03;;;33.07;;
7047;SDS011;3565;53.254;10.352;2023-02-23T12:33:54;87.70;;;34.83;;
7047;SDS011;3565;53.254;10.352;2023-02-23T12:36:35;84.57;;;33.60;;
7047;SDS011;3565;53.254;10.352;2023-02-23T12:39:07;83.63;;;30.87;;
7047;SDS011;3565;53.254;10.352;2023-02-23T12:41:43;94.50;;;34.40;;
7047;SDS011;3565;53.254;10.352;2023-02-23T12:44:18;90.47;;;33.07;;
7047;SDS011;3565;53.254;10.352;2023-02-23T12:46:50;94.73;;;33.23;;
7047;SDS011;3565;53.254;10.352;2023-02-23T12:49:24;94.17;;;32.00;;
7047;SDS011;3565;53.254;10.352;2023-02-23T12:51:56;96.90;;;32.27;;
7047;SDS011;3565;53.254;10.352;2023-02-23T12:54:27;90.50;;;31.20;;
7047;SDS011;3565;53.254;10.352;2023-02-23T12:57:01;87.07;;;30.83;;
7047;SDS011;3565;53.254;10.352;2023-02-23T12:59:54;89.50;;;32.27;;
7047;SDS011;3565;53.254;10.352;2023-02-23T13:02:57;93.87;;;32.33;;
7047;SDS011;3565;53.254;10.352;2023-02-23T13:05:50;94.97;;;32.13;;
7047;SDS011;3565;53.254;10.352;2023-02-23T13:08:28;100.10;;;33.57;;
7047;SDS011;3565;53.254;10.352;2023-02-23T13:10:59;103.93;;;32.83;;
7047;SDS011;3565;53.254;10.352;2023-02-23T13:13:32;95.13;;;32.83;;
7047;SDS011;3565;53.254;10.352;2023-02-23T13:16:06;100.60;;;31.93;;
7047;SDS011;3565;53.254;10.352;2023-02-23T13:18:39;100.70;;;33.77;;
7047;SDS011;3565;53.254;10.352;2023-02-23T13:21:12;105.67;;;33.43;;
7047;SDS011;3565;53.254;10.352;2023-02-23T13:23:45;112.83;;;32.70;;
7047;SDS011;3565;53.254;10.352;2023-02-23T13:26:21;107.87;;;35.00;;
7047;SDS011;3565;53.254;10.352;2023-02-23T13:28:55;110.33;;;34.27;;
7047;SDS011;3565;53.254;10.352;2023-02-23T13:31:28;116.10;;;34.80;;
7047;SDS011;3565;53.254;10.352;2023-02-23T13:34:00;113.93;;;34.60;;
7047;SDS011;3565;53.254;10.352;2023-02-23T13:36:32;112.13;;;34.50;;
7047;SDS011;3565;53.254;10.352;2023-02-23T13:39:21;107.07;;;34.50;;
7047;SDS011;3565;53.254;10.352;2023-02-23T13:42:04;115.77;;;35.47;;
7047;SDS011;3565;53.254;10.352;2023-02-23T13:44:45;113.37;;;33.53;;
7047;SDS011;3565;53.254;10.352;2023-02-23T13:47:19;110.63;;;35.73;;
7047;SDS011;3565;53.254;10.352;2023-02-23T13:49:51;106.27;;;33.03;;
7047;SDS011;3565;53.254;10.352;2023-02-23T13:52:27;108.70;;;33.50;;
7047;SDS011;3565;53.254;10.352;2023-02-23T13:54:59;104.37;;;32.57;;
7047;SDS011;3565;53.254;10.352;2023-02-23T13:57:29;97.17;;;34.20;;
7047;SDS011;3565;53.254;10.352;2023-02-23T14:00:02;101.30;;;33.17;;
7047;SDS011;3565;53.254;10.352;2023-02-23T14:02:38;97.73;;;32.70;;
7047;SDS011;3565;53.254;10.352;2023-02-23T14:05:14;100.20;;;32.10;;
7047;SDS011;3565;53.254;10.352;2023-02-23T14:07:46;90.40;;;30.17;;
7047;SDS011;3565;53.254;10.352;2023-02-23T14:10:19;98.70;;;31.57;;
7047;SDS011;3565;53.254;10.352;2023-02-23T14:13:04;97.23;;;31.80;;
7047;SDS011;3565;53.254;10.352;2023-02-23T14:15:41;103.70;;;32.70;;
7047;SDS011;3565;53.254;10.352;2023-02-23T14:18:32;94.13;;;31.87;;
7047;SDS011;3565;53.254;10.352;2023-02-23T14:21:03;98.60;;;33.77;;
7047;SDS011;3565;53.254;10.352;2023-02-23T14:23:48;97.23;;;32.47;;
7047;SDS011;3565;53.254;10.352;2023-02-23T14:26:38;89.70;;;31.90;;
7047;SDS011;3565;53.254;10.352;2023-02-23T14:29:16;89.00;;;31.57;;
7047;SDS011;3565;53.254;10.352;2023-02-23T14:31:53;91.90;;;31.57;;
7047;SDS011;3565;53.254;10.352;2023-02-23T14:34:40;87.93;;;31.23;;
7047;SDS011;3565;53.254;10.352;2023-02-23T14:37:16;97.40;;;31.90;;
7047;SDS011;3565;53.254;10.352;2023-02-23T14:39:50;93.30;;;32.80;;
7047;SDS011;3565;53.254;10.352;2023-02-23T14:45:02;98.93;;;31.93;;
7047;SDS011;3565;53.254;10.352;2023-02-23T14:47:41;91.73;;;31.27;;
7047;SDS011;3565;53.254;10.352;2023-02-23T14:50:15;92.40;;;30.60;;
7047;SDS011;3565;53.254;10.352;2023-02-23T14:52:46;94.17;;;31.23;;
7047;SDS011;3565;53.254;10.352;2023-02-23T14:55:20;92.93;;;31.13;;
7047;SDS011;3565;53.254;10.352;2023-02-23T14:57:52;88.97;;;30.53;;
7047;SDS011;3565;53.254;10.352;2023-02-23T15:00:23;97.03;;;31.90;;
7047;SDS011;3565;53.254;10.352;2023-02-23T15:03:05;86.27;;;30.63;;
7047;SDS011;3565;53.254;10.352;2023-02-23T15:05:40;99.27;;;31.13;;
7047;SDS011;3565;53.254;10.352;2023-02-23T15:08:12;92.10;;;31.37;;
7047;SDS011;3565;53.254;10.352;2023-02-23T15:10:44;94.17;;;29.87;;
7047;SDS011;3565;53.254;10.352;2023-02-23T15:13:16;86.60;;;30.80;;
7047;SDS011;3565;53.254;10.352;2023-02-23T15:15:48;88.43;;;30.77;;
7047;SDS011;3565;53.254;10.352;2023-02-23T15:18:20;103.00;;;33.03;;
7047;SDS011;3565;53.254;10.352;2023-02-23T15:20:51;85.97;;;30.10;;
7047;SDS011;3565;53.254;10.352;2023-02-23T15:23:21;92.53;;;31.10;;
7047;SDS011;3565;53.254;10.352;2023-02-23T15:25:51;91.60;;;31.17;;
7047;SDS011;3565;53.254;10.352;2023-02-23T15:28:22;92.03;;;32.63;;
7047;SDS011;3565;53.254;10.352;2023-02-23T15:30:53;97.63;;;30.23;;
7047;SDS011;3565;53.254;10.352;2023-02-23T15:33:25;90.53;;;29.47;;
7047;SDS011;3565;53.254;10.352;2023-02-23T15:35:54;87.50;;;30.70;;
7047;SDS011;3565;53.254;10.352;2023-02-23T15:38:37;84.70;;;30.30;;
7047;SDS011;3565;53.254;10.352;2023-02-23T15:41:08;90.33;;;29.80;;